createdAt,value
2022-08-28T00:00:34.913Z,16.30
2022-08-28T00:03:01.933Z,16.20
2022-08-28T00:05:31.240Z,16.20
2022-08-28T00:07:58.915Z,16.20
2022-08-28T00:10:26.913Z,16.20
2022-08-28T00:12:55.731Z,16.10
2022-08-28T00:15:26.941Z,16.10
2022-08-28T00:17:53.949Z,16.10
2022-08-28T00:20:22.035Z,16.10
2022-08-28T00:22:49.646Z,16.10
2022-08-28T00:25:19.710Z,16.00
2022-08-28T00:27:52.508Z,16.00
2022-08-28T00:30:21.690Z,16.00
2022-08-28T00:32:49.159Z,15.90
2022-08-28T00:35:17.639Z,15.90
2022-08-28T00:37:46.135Z,15.90
2022-08-28T00:40:18.604Z,15.90
2022-08-28T00:42:55.826Z,15.90
2022-08-28T00:45:24.751Z,15.80
2022-08-28T00:47:51.618Z,15.80
2022-08-28T00:50:24.347Z,15.70
2022-08-28T00:53:00.018Z,15.70
2022-08-28T00:55:28.425Z,15.70
2022-08-28T00:57:59.031Z,15.70
2022-08-28T01:00:29.267Z,15.70
2022-08-28T01:02:56.524Z,15.70
2022-08-28T01:05:23.891Z,15.60
2022-08-28T01:07:52.061Z,15.60
2022-08-28T01:10:23.275Z,15.60
2022-08-28T01:12:50.762Z,15.60
2022-08-28T01:15:21.103Z,15.50
2022-08-28T01:17:51.839Z,15.50
2022-08-28T01:20:23.118Z,15.50
2022-08-28T01:23:01.998Z,15.50
2022-08-28T01:25:33.740Z,15.50
2022-08-28T01:28:02.014Z,15.50
2022-08-28T01:30:31.900Z,15.50
2022-08-28T01:32:59.386Z,15.50
2022-08-28T01:35:31.579Z,15.50
2022-08-28T01:37:59.396Z,15.50
2022-08-28T01:40:30.292Z,15.40
2022-08-28T01:43:10.581Z,15.40
2022-08-28T01:45:37.753Z,15.40
2022-08-28T01:48:06.246Z,15.40
2022-08-28T01:50:34.489Z,15.30
2022-08-28T01:53:02.430Z,15.30
2022-08-28T01:55:29.551Z,15.30
2022-08-28T01:57:56.467Z,15.30
2022-08-28T02:00:27.462Z,15.20
2022-08-28T02:02:56.490Z,15.20
2022-08-28T02:05:25.319Z,15.20
2022-08-28T02:07:52.690Z,15.20
2022-08-28T02:10:24.703Z,15.10
2022-08-28T02:12:53.797Z,15.10
2022-08-28T02:15:23.642Z,15.10
2022-08-28T02:17:50.552Z,15.10
2022-08-28T02:20:17.945Z,15.00
2022-08-28T02:22:45.167Z,15.00
2022-08-28T02:25:13.941Z,15.00
2022-08-28T02:27:41.496Z,15.00
2022-08-28T02:30:10.946Z,14.90
2022-08-28T02:32:38.506Z,14.90
2022-08-28T02:35:10.967Z,14.90
2022-08-28T02:37:39.804Z,14.90
2022-08-28T02:40:07.538Z,14.80
2022-08-28T02:42:34.396Z,14.80
2022-08-28T02:45:01.278Z,14.80
2022-08-28T02:47:28.153Z,14.80
2022-08-28T02:49:54.991Z,14.70
2022-08-28T02:52:23.623Z,14.70
2022-08-28T02:54:50.721Z,14.70
2022-08-28T02:57:17.631Z,14.70
2022-08-28T02:59:44.572Z,14.60
2022-08-28T03:02:11.447Z,14.60
2022-08-28T03:04:38.693Z,14.60
2022-08-28T03:07:11.205Z,14.60
2022-08-28T03:09:38.680Z,14.60
2022-08-28T03:12:05.716Z,14.50
2022-08-28T03:14:32.565Z,14.50
2022-08-28T03:17:01.336Z,14.50
2022-08-28T03:19:28.198Z,14.50
2022-08-28T03:21:55.106Z,14.50
2022-08-28T03:24:21.959Z,14.40
2022-08-28T03:26:48.859Z,14.40
2022-08-28T03:29:15.785Z,14.40
2022-08-28T03:31:42.548Z,14.40
2022-08-28T03:34:09.645Z,14.30
2022-08-28T03:36:36.433Z,14.30
2022-08-28T03:39:06.302Z,14.30
2022-08-28T03:41:34.040Z,14.30
2022-08-28T03:44:01.761Z,14.30
2022-08-28T03:46:32.795Z,14.30
2022-08-28T03:49:01.528Z,14.30
2022-08-28T03:51:32.647Z,14.20
2022-08-28T03:54:00.511Z,14.20
2022-08-28T03:56:30.080Z,14.20
2022-08-28T03:59:00.168Z,14.20
2022-08-28T04:01:27.353Z,14.10
2022-08-28T04:03:54.266Z,14.20
2022-08-28T04:06:21.087Z,14.10
2022-08-28T04:08:48.436Z,14.10
2022-08-28T04:11:15.397Z,14.10
2022-08-28T04:13:42.240Z,14.10
2022-08-28T04:16:12.719Z,14.10
2022-08-28T04:18:41.714Z,14.00
2022-08-28T04:21:11.988Z,14.00
2022-08-28T04:23:40.401Z,14.00
2022-08-28T04:26:08.242Z,14.00
2022-08-28T04:28:35.167Z,14.00
2022-08-28T04:31:02.659Z,14.00
2022-08-28T04:33:30.745Z,13.90
2022-08-28T04:35:57.713Z,14.00
2022-08-28T04:38:24.600Z,13.90
2022-08-28T04:40:51.509Z,14.00
2022-08-28T04:43:18.291Z,13.90
2022-08-28T04:45:46.002Z,13.90
2022-08-28T04:48:14.066Z,13.90
2022-08-28T04:50:49.945Z,13.90
2022-08-28T04:53:19.551Z,13.90
2022-08-28T04:55:54.411Z,13.90
2022-08-28T04:58:24.094Z,13.90
2022-08-28T05:00:53.641Z,13.90
2022-08-28T05:03:20.997Z,13.90
2022-08-28T05:05:52.953Z,13.90
2022-08-28T05:08:24.151Z,13.90
2022-08-28T05:10:51.074Z,14.00
2022-08-28T05:13:19.138Z,14.00
2022-08-28T05:15:49.180Z,14.00
2022-08-28T05:18:17.977Z,14.00
2022-08-28T05:20:47.064Z,14.00
2022-08-28T05:23:15.926Z,14.00
2022-08-28T05:25:46.704Z,14.00
2022-08-28T05:28:14.615Z,14.10
2022-08-28T05:30:43.417Z,14.10
2022-08-28T05:33:13.232Z,14.10
2022-08-28T05:35:44.717Z,14.20
2022-08-28T05:38:13.527Z,14.20
2022-08-28T05:40:45.525Z,14.30
2022-08-28T05:43:14.501Z,14.30
2022-08-28T05:45:41.977Z,14.30
2022-08-28T05:48:09.441Z,14.40
2022-08-28T05:50:44.492Z,14.40
2022-08-28T05:53:14.967Z,14.50
2022-08-28T05:55:41.702Z,14.50
2022-08-28T05:58:27.043Z,14.60
2022-08-28T06:00:53.808Z,14.70
2022-08-28T06:03:20.898Z,14.70
2022-08-28T06:05:55.283Z,14.80
2022-08-28T06:08:23.212Z,14.90
2022-08-28T06:10:50.909Z,15.00
2022-08-28T06:13:17.802Z,15.10
2022-08-28T06:15:47.182Z,15.10
2022-08-28T06:18:15.249Z,15.20
2022-08-28T06:20:44.886Z,15.40
2022-08-28T06:23:16.078Z,15.50
2022-08-28T06:25:51.763Z,15.50
2022-08-28T06:28:25.895Z,15.60
2022-08-28T06:31:20.060Z,15.70
2022-08-28T06:33:42.611Z,15.80
2022-08-28T06:36:09.531Z,15.90
2022-08-28T06:38:36.397Z,16.00
2022-08-28T06:41:11.462Z,16.10
2022-08-28T06:43:38.281Z,16.10
2022-08-28T06:46:05.246Z,16.20
2022-08-28T06:48:32.207Z,16.30
2022-08-28T06:50:59.254Z,16.40
2022-08-28T06:53:28.630Z,16.50
2022-08-28T06:56:01.399Z,16.60
2022-08-28T06:58:29.002Z,16.70
2022-08-28T07:01:30.203Z,16.80
2022-08-28T07:04:00.543Z,17.00
2022-08-28T07:06:30.467Z,17.10
2022-08-28T07:08:57.188Z,17.10
2022-08-28T07:11:26.911Z,17.20
2022-08-28T07:13:55.585Z,17.30
2022-08-28T07:16:28.626Z,17.40
2022-08-28T07:18:56.350Z,17.50
2022-08-28T07:21:23.692Z,17.60
2022-08-28T07:23:50.598Z,17.60
2022-08-28T07:26:20.163Z,17.70
2022-08-28T07:28:47.281Z,17.80
2022-08-28T07:31:17.116Z,18.00
2022-08-28T07:33:44.512Z,18.10
2022-08-28T07:36:28.913Z,18.20
2022-08-28T07:38:58.818Z,18.30
2022-08-28T07:41:29.363Z,18.40
2022-08-28T07:44:15.128Z,18.50
2022-08-28T07:46:42.426Z,18.60
2022-08-28T07:49:09.521Z,18.70
2022-08-28T07:51:37.336Z,18.80
2022-08-28T07:54:04.950Z,18.90
2022-08-28T07:56:32.086Z,19.10
2022-08-28T07:59:00.675Z,19.30
2022-08-28T08:01:30.638Z,19.80
2022-08-28T08:04:01.317Z,20.40
2022-08-28T08:06:33.094Z,21.10
2022-08-28T08:09:01.848Z,21.80
2022-08-28T08:11:32.316Z,22.60
2022-08-28T08:14:05.375Z,23.30
2022-08-28T08:16:34.897Z,23.90
2022-08-28T08:19:02.238Z,24.40
2022-08-28T08:21:30.466Z,24.80
2022-08-28T08:23:58.200Z,25.30
2022-08-28T08:26:28.181Z,26.00
2022-08-28T08:28:56.528Z,26.40
2022-08-28T08:31:26.809Z,26.90
2022-08-28T08:33:56.674Z,27.10
2022-08-28T08:36:26.088Z,27.40
2022-08-28T08:38:59.630Z,27.70
2022-08-28T08:41:48.348Z,27.80
2022-08-28T08:44:40.780Z,28.00
2022-08-28T08:47:20.024Z,28.20
2022-08-28T08:50:17.300Z,28.20
2022-08-28T08:53:12.383Z,28.70
2022-08-28T08:55:50.783Z,29.20
2022-08-28T08:58:32.790Z,29.60
2022-08-28T09:01:14.831Z,30.00
2022-08-28T09:03:56.032Z,30.30
2022-08-28T09:06:44.571Z,30.50
2022-08-28T09:09:18.845Z,30.80
2022-08-28T09:11:58.457Z,30.90
2022-08-28T09:14:34.367Z,31.10
2022-08-28T09:17:02.699Z,31.50
2022-08-28T09:19:29.834Z,31.80
2022-08-28T09:21:57.120Z,31.70
2022-08-28T09:24:26.149Z,31.80
2022-08-28T09:26:58.782Z,31.40
2022-08-28T09:29:38.635Z,30.90
2022-08-28T09:32:35.416Z,30.30
2022-08-28T09:35:29.345Z,29.60
2022-08-28T09:38:07.151Z,29.20
2022-08-28T09:40:52.564Z,29.30
2022-08-28T09:43:28.303Z,29.30
2022-08-28T09:46:03.057Z,29.40
2022-08-28T09:48:39.288Z,29.80
2022-08-28T09:51:08.978Z,30.30
2022-08-28T09:53:42.943Z,31.20
2022-08-28T09:56:16.775Z,32.20
2022-08-28T09:58:51.322Z,32.70
2022-08-28T10:01:39.158Z,33.20
2022-08-28T10:04:32.063Z,33.70
2022-08-28T10:07:08.421Z,34.00
2022-08-28T10:09:47.847Z,34.40
2022-08-28T10:12:40.235Z,34.40
2022-08-28T10:15:42.488Z,33.90
2022-08-28T10:18:30.851Z,33.30
2022-08-28T10:21:44.467Z,32.90
2022-08-28T10:24:55.399Z,32.50
2022-08-28T10:27:57.223Z,31.90
2022-08-28T10:30:25.131Z,31.30
2022-08-28T10:33:11.898Z,30.70
2022-08-28T10:35:45.635Z,30.00
2022-08-28T10:38:32.754Z,30.10
2022-08-28T10:41:06.377Z,30.80
2022-08-28T10:43:48.160Z,31.60
2022-08-28T10:46:27.189Z,32.50
2022-08-28T10:49:06.967Z,32.80
2022-08-28T10:51:44.757Z,32.10
2022-08-28T10:54:34.424Z,31.50
2022-08-28T10:57:31.086Z,31.70
2022-08-28T11:00:00.589Z,32.50
2022-08-28T11:02:29.947Z,33.00
2022-08-28T11:04:58.794Z,33.00
2022-08-28T11:08:06.701Z,32.70
2022-08-28T11:10:36.520Z,32.90
2022-08-28T11:13:06.190Z,33.50
2022-08-28T11:15:37.211Z,33.60
2022-08-28T11:18:37.868Z,33.40
2022-08-28T11:21:15.197Z,33.60
2022-08-28T11:23:43.949Z,33.90
2022-08-28T11:26:14.695Z,34.40
2022-08-28T11:28:43.553Z,34.60
2022-08-28T11:31:10.288Z,35.00
2022-08-28T11:33:52.383Z,35.30
2022-08-28T11:36:19.271Z,35.60
2022-08-28T11:38:46.450Z,35.80
2022-08-28T11:41:22.701Z,35.80
2022-08-28T11:44:07.059Z,35.30
2022-08-28T11:46:36.352Z,34.70
2022-08-28T11:49:27.741Z,34.50
2022-08-28T11:52:23.792Z,34.50
2022-08-28T11:55:34.879Z,34.20
2022-08-28T12:00:48.209Z,34.70
2022-08-28T12:03:28.175Z,34.50
2022-08-28T12:05:59.747Z,34.30
2022-08-28T12:08:44.717Z,33.90
2022-08-28T12:11:40.326Z,33.30
2022-08-28T12:14:13.182Z,32.80
2022-08-28T12:16:58.560Z,33.20
2022-08-28T12:19:51.165Z,33.20
2022-08-28T12:22:26.534Z,32.80
2022-08-28T12:25:06.083Z,32.70
2022-08-28T12:27:38.506Z,32.70
2022-08-28T12:30:05.815Z,32.30
2022-08-28T12:32:53.472Z,31.80
2022-08-28T12:35:29.554Z,31.60
2022-08-28T12:37:57.320Z,32.00
2022-08-28T12:40:52.873Z,32.60
2022-08-28T12:43:46.780Z,33.60
2022-08-28T12:46:19.730Z,34.20
2022-08-28T12:48:52.589Z,34.10
2022-08-28T12:51:25.762Z,33.90
2022-08-28T12:53:56.129Z,33.90
2022-08-28T12:56:26.243Z,34.30
2022-08-28T12:58:53.160Z,34.50
2022-08-28T13:01:32.972Z,34.20
2022-08-28T13:04:03.025Z,33.30
2022-08-28T13:06:33.846Z,32.40
2022-08-28T13:09:05.404Z,31.60
2022-08-28T13:11:37.687Z,31.30
2022-08-28T13:14:05.473Z,31.20
2022-08-28T13:16:43.538Z,31.00
2022-08-28T13:19:12.355Z,31.20
2022-08-28T13:21:48.070Z,32.00
2022-08-28T13:24:21.173Z,32.90
2022-08-28T13:27:09.387Z,33.60
2022-08-28T13:29:37.348Z,34.30
2022-08-28T13:32:04.335Z,35.00
2022-08-28T13:34:36.837Z,35.40
2022-08-28T13:37:20.206Z,35.40
2022-08-28T13:39:47.762Z,35.40
2022-08-28T13:42:17.886Z,35.30
2022-08-28T13:44:53.129Z,34.90
2022-08-28T13:47:20.266Z,34.50
2022-08-28T13:49:47.568Z,34.60
2022-08-28T13:52:14.593Z,34.70
2022-08-28T13:54:45.305Z,34.80
2022-08-28T13:57:13.636Z,34.90
2022-08-28T13:59:40.748Z,35.10
2022-08-28T14:02:30.375Z,34.90
2022-08-28T14:04:57.356Z,34.70
2022-08-28T14:07:24.239Z,34.50
2022-08-28T14:09:56.120Z,34.50
2022-08-28T14:12:27.887Z,34.50
2022-08-28T14:15:01.078Z,34.40
2022-08-28T14:17:27.802Z,34.30
2022-08-28T14:19:54.708Z,34.60
2022-08-28T14:22:21.505Z,34.80
2022-08-28T14:24:48.530Z,34.80
2022-08-28T14:27:15.294Z,34.50
2022-08-28T14:29:42.110Z,34.30
2022-08-28T14:32:09.015Z,33.90
2022-08-28T14:34:36.180Z,33.80
2022-08-28T14:37:03.026Z,33.70
2022-08-28T14:39:31.268Z,33.40
2022-08-28T14:41:58.176Z,33.40
2022-08-28T14:44:25.816Z,33.60
2022-08-28T14:46:56.107Z,33.80
2022-08-28T14:49:24.325Z,34.00
2022-08-28T14:51:52.781Z,34.10
2022-08-28T14:54:21.640Z,33.90
2022-08-28T14:56:50.296Z,33.70
2022-08-28T14:59:24.243Z,33.60
2022-08-28T15:01:52.765Z,33.30
2022-08-28T15:04:22.758Z,33.10
2022-08-28T15:06:51.426Z,33.20
2022-08-28T15:09:19.070Z,33.30
2022-08-28T15:11:46.089Z,33.30
2022-08-28T15:14:13.272Z,33.20
2022-08-28T15:16:43.080Z,33.40
2022-08-28T15:19:12.309Z,33.20
2022-08-28T15:21:44.404Z,33.10
2022-08-28T15:24:11.849Z,33.10
2022-08-28T15:26:40.129Z,33.10
2022-08-28T15:29:07.881Z,33.00
2022-08-28T15:31:37.858Z,32.90
2022-08-28T15:34:13.672Z,33.00
2022-08-28T15:36:42.259Z,33.00
2022-08-28T15:39:28.277Z,32.70
2022-08-28T15:41:55.656Z,32.60
2022-08-28T15:44:22.542Z,32.50
2022-08-28T15:46:52.902Z,32.50
2022-08-28T15:49:20.697Z,32.40
2022-08-28T15:51:51.022Z,32.20
2022-08-28T15:54:18.764Z,32.10
2022-08-28T15:56:46.085Z,31.80
2022-08-28T15:59:14.984Z,31.50
2022-08-28T16:01:41.829Z,31.50
2022-08-28T16:04:08.728Z,31.50
2022-08-28T16:06:36.175Z,31.50
2022-08-28T16:09:06.026Z,31.60
2022-08-28T16:11:33.786Z,31.50
2022-08-28T16:14:01.037Z,31.40
2022-08-28T16:16:27.866Z,31.30
2022-08-28T16:18:55.451Z,31.30
2022-08-28T16:21:22.849Z,31.30
2022-08-28T16:23:54.407Z,31.30
2022-08-28T16:26:21.397Z,31.30
2022-08-28T16:28:48.306Z,31.20
2022-08-28T16:31:19.090Z,30.90
2022-08-28T16:33:48.218Z,30.50
2022-08-28T16:36:16.304Z,30.20
2022-08-28T16:38:45.645Z,30.20
2022-08-28T16:41:21.058Z,30.00
2022-08-28T16:43:49.591Z,29.80
2022-08-28T16:46:23.490Z,29.60
2022-08-28T16:48:51.876Z,29.30
2022-08-28T16:51:19.511Z,29.00
2022-08-28T16:53:47.286Z,28.90
2022-08-28T16:56:17.167Z,28.90
2022-08-28T16:58:44.923Z,28.90
2022-08-28T17:01:13.292Z,29.00
2022-08-28T17:03:41.471Z,29.00
2022-08-28T17:06:17.297Z,28.90
2022-08-28T17:08:44.494Z,28.70
2022-08-28T17:11:12.112Z,28.50
2022-08-28T17:13:39.838Z,28.40
2022-08-28T17:16:08.129Z,28.20
2022-08-28T17:18:35.947Z,28.00
2022-08-28T17:21:22.227Z,27.90
2022-08-28T17:23:49.729Z,27.60
2022-08-28T17:26:17.892Z,27.20
2022-08-28T17:28:45.218Z,27.00
2022-08-28T17:31:13.850Z,27.00
2022-08-28T17:33:42.648Z,27.00
2022-08-28T17:36:15.390Z,26.80
2022-08-28T17:38:52.430Z,26.40
2022-08-28T17:41:19.391Z,26.10
2022-08-28T17:43:46.303Z,25.70
2022-08-28T17:46:14.391Z,25.40
2022-08-28T17:48:41.445Z,25.10
2022-08-28T17:51:42.161Z,24.80
2022-08-28T17:54:13.903Z,24.60
2022-08-28T17:56:41.266Z,24.30
2022-08-28T17:59:08.102Z,24.20
2022-08-28T18:01:35.968Z,24.10
2022-08-28T18:04:03.310Z,24.00
2022-08-28T18:06:30.170Z,23.90
2022-08-28T18:08:56.987Z,23.80
2022-08-28T18:11:23.907Z,23.60
2022-08-28T18:13:50.839Z,23.50
2022-08-28T18:16:18.109Z,23.40
2022-08-28T18:18:45.343Z,23.30
2022-08-28T18:21:13.486Z,23.30
2022-08-28T18:23:41.044Z,23.20
2022-08-28T18:26:08.564Z,23.10
2022-08-28T18:28:35.600Z,23.00
2022-08-28T18:31:03.574Z,22.90
2022-08-28T18:33:30.489Z,22.80
2022-08-28T18:35:57.983Z,22.60
2022-08-28T18:38:28.212Z,22.60
2022-08-28T18:40:55.724Z,22.50
2022-08-28T18:43:22.584Z,22.40
2022-08-28T18:45:49.471Z,22.30
2022-08-28T18:48:16.610Z,22.30
2022-08-28T18:50:46.484Z,22.20
2022-08-28T18:53:15.374Z,22.20
2022-08-28T18:55:42.235Z,22.20
2022-08-28T18:58:14.400Z,22.10
2022-08-28T19:00:42.609Z,22.10
2022-08-28T19:03:09.663Z,22.10
2022-08-28T19:05:37.849Z,22.00
2022-08-28T19:08:05.790Z,22.00
2022-08-28T19:10:34.859Z,21.90
2022-08-28T19:13:02.787Z,21.80
2022-08-28T19:15:31.128Z,21.70
2022-08-28T19:18:00.195Z,21.70
2022-08-28T19:20:28.081Z,21.60
2022-08-28T19:22:56.860Z,21.60
2022-08-28T19:25:27.868Z,21.60
2022-08-28T19:27:59.697Z,21.60
2022-08-28T19:30:29.234Z,21.60
2022-08-28T19:32:56.132Z,21.60
2022-08-28T19:35:24.565Z,21.60
2022-08-28T19:37:52.495Z,21.50
2022-08-28T19:40:20.507Z,21.50
2022-08-28T19:42:49.696Z,21.40
2022-08-28T19:45:16.813Z,21.30
2022-08-28T19:47:43.719Z,21.30
2022-08-28T19:50:12.235Z,21.20
2022-08-28T19:52:39.163Z,21.20
2022-08-28T19:55:06.990Z,21.10
2022-08-28T19:57:34.770Z,21.10
2022-08-28T20:00:01.956Z,21.00
2022-08-28T20:02:31.596Z,21.00
2022-08-28T20:04:59.453Z,20.90
2022-08-28T20:07:26.333Z,21.00
2022-08-28T20:09:53.106Z,20.90
2022-08-28T20:12:20.092Z,20.90
2022-08-28T20:14:47.429Z,20.90
2022-08-28T20:17:14.196Z,20.80
2022-08-28T20:19:41.367Z,20.80
2022-08-28T20:22:08.447Z,20.80
2022-08-28T20:24:35.391Z,20.80
2022-08-28T20:27:02.279Z,20.70
2022-08-28T20:29:29.203Z,20.70
2022-08-28T20:31:56.027Z,20.60
2022-08-28T20:34:22.875Z,20.50
2022-08-28T20:36:50.135Z,20.50
2022-08-28T20:39:17.095Z,20.50
2022-08-28T20:41:44.958Z,20.50
2022-08-28T20:44:14.480Z,20.40
2022-08-28T20:46:42.117Z,20.40
2022-08-28T20:49:13.781Z,20.40
2022-08-28T20:51:58.736Z,20.30
2022-08-28T20:54:37.284Z,20.30
2022-08-28T20:57:07.818Z,20.30
2022-08-28T20:59:39.682Z,20.30
2022-08-28T21:02:13.266Z,20.30
2022-08-28T21:04:41.590Z,20.30
2022-08-28T21:07:08.830Z,20.30
2022-08-28T21:10:03.862Z,20.40
2022-08-28T21:12:22.570Z,20.40
2022-08-28T21:14:52.945Z,20.40
2022-08-28T21:17:28.951Z,20.40
2022-08-28T21:20:04.326Z,20.30
2022-08-28T21:22:32.807Z,20.30
2022-08-28T21:25:00.148Z,20.30
2022-08-28T21:27:27.269Z,20.30
2022-08-28T21:29:58.965Z,20.30
2022-08-28T21:32:27.456Z,20.30
2022-08-28T21:34:55.196Z,20.20
2022-08-28T21:37:22.537Z,20.20
2022-08-28T21:39:49.463Z,20.20
2022-08-28T21:42:16.430Z,20.10
2022-08-28T21:44:46.105Z,20.10
2022-08-28T21:47:21.455Z,20.10
2022-08-28T21:49:50.102Z,20.00
2022-08-28T21:52:18.678Z,20.00
2022-08-28T21:54:45.597Z,19.90
2022-08-28T21:57:12.337Z,19.70
2022-08-28T21:59:39.243Z,19.60
2022-08-28T22:02:06.589Z,19.50
2022-08-28T22:04:34.691Z,19.40
2022-08-28T22:07:01.762Z,19.30
2022-08-28T22:09:29.139Z,19.20
2022-08-28T22:11:55.920Z,19.10
2022-08-28T22:14:24.540Z,19.00
2022-08-28T22:16:51.479Z,19.00
2022-08-28T22:19:18.283Z,19.00
2022-08-28T22:22:03.592Z,18.90
2022-08-28T22:24:30.345Z,18.80
2022-08-28T22:26:57.487Z,18.70
2022-08-28T22:29:25.569Z,18.70
2022-08-28T22:31:52.827Z,18.70
2022-08-28T22:34:20.004Z,18.70
2022-08-28T22:36:47.075Z,18.60
2022-08-28T22:39:14.165Z,18.50
2022-08-28T22:41:41.939Z,18.40
2022-08-28T22:44:09.046Z,18.30
2022-08-28T22:46:35.998Z,18.30
2022-08-28T22:49:03.152Z,18.30
2022-08-28T22:51:30.020Z,18.20
2022-08-28T22:53:56.881Z,18.20
2022-08-28T22:56:23.875Z,18.10
2022-08-28T22:58:50.695Z,18.10
2022-08-28T23:01:20.800Z,18.10
2022-08-28T23:03:48.341Z,18.00
2022-08-28T23:06:15.396Z,18.00
2022-08-28T23:08:42.900Z,18.00
2022-08-28T23:11:10.838Z,18.00
2022-08-28T23:13:37.955Z,17.90
2022-08-28T23:16:05.434Z,17.90
2022-08-28T23:18:46.247Z,17.90
2022-08-28T23:21:23.735Z,17.80
2022-08-28T23:23:53.343Z,17.80
2022-08-28T23:26:20.281Z,17.80
2022-08-28T23:28:47.252Z,17.80
2022-08-28T23:31:14.074Z,17.70
2022-08-28T23:33:41.344Z,17.70
2022-08-28T23:36:08.461Z,17.70
2022-08-28T23:38:40.418Z,17.60
2022-08-28T23:41:10.603Z,17.60
2022-08-28T23:43:37.751Z,17.60
2022-08-28T23:46:05.176Z,17.50
2022-08-28T23:48:32.840Z,17.50
2022-08-28T23:50:59.659Z,17.40
2022-08-28T23:53:26.849Z,17.40
2022-08-28T23:55:54.249Z,17.40
2022-08-28T23:58:22.482Z,17.40
